sensor_id;sensor_type;location;lat;lon;timestamp;temperature;humidity
75931;DHT22;64609;47.052;15.462;2022-12-16T00:00:22;5.80;68.50
75931;DHT22;64609;47.052;15.462;2022-12-16T00:02:48;5.80;69.30
75931;DHT22;64609;47.052;15.462;2022-12-16T00:05:13;5.90;69.70
75931;DHT22;64609;47.052;15.462;2022-12-16T00:07:39;5.90;69.80
75931;DHT22;64609;47.052;15.462;2022-12-16T00:10:06;6.00;70.00
75931;DHT22;64609;47.052;15.462;2022-12-16T00:12:32;6.00;70.70
75931;DHT22;64609;47.052;15.462;2022-12-16T00:14:57;6.10;70.90
75931;DHT22;64609;47.052;15.462;2022-12-16T00:17:23;6.10;70.90
75931;DHT22;64609;47.052;15.462;2022-12-16T00:19:49;6.10;70.90
75931;DHT22;64609;47.052;15.462;2022-12-16T00:22:14;6.10;70.50
75931;DHT22;64609;47.052;15.462;2022-12-16T00:24:40;6.10;71.00
75931;DHT22;64609;47.052;15.462;2022-12-16T00:27:06;6.10;71.10
75931;DHT22;64609;47.052;15.462;2022-12-16T00:29:31;6.10;70.80
75931;DHT22;64609;47.052;15.462;2022-12-16T00:31:57;6.10;71.30
75931;DHT22;64609;47.052;15.462;2022-12-16T00:34:23;6.10;70.40
75931;DHT22;64609;47.052;15.462;2022-12-16T00:36:48;6.20;70.60
75931;DHT22;64609;47.052;15.462;2022-12-16T00:39:14;6.20;70.60
75931;DHT22;64609;47.052;15.462;2022-12-16T00:41:39;6.20;70.50
75931;DHT22;64609;47.052;15.462;2022-12-16T00:44:05;6.10;69.80
75931;DHT22;64609;47.052;15.462;2022-12-16T00:46:31;6.00;69.70
75931;DHT22;64609;47.052;15.462;2022-12-16T00:48:56;5.90;69.70
75931;DHT22;64609;47.052;15.462;2022-12-16T00:51:22;5.80;70.00
75931;DHT22;64609;47.052;15.462;2022-12-16T00:53:48;5.80;70.40
75931;DHT22;64609;47.052;15.462;2022-12-16T00:56:14;5.90;71.00
75931;DHT22;64609;47.052;15.462;2022-12-16T00:58:40;5.90;71.10
75931;DHT22;64609;47.052;15.462;2022-12-16T01:01:06;6.00;71.40
75931;DHT22;64609;47.052;15.462;2022-12-16T01:03:32;6.00;71.30
75931;DHT22;64609;47.052;15.462;2022-12-16T01:05:58;6.00;70.80
75931;DHT22;64609;47.052;15.462;2022-12-16T01:08:24;6.00;71.00
75931;DHT22;64609;47.052;15.462;2022-12-16T01:10:55;6.00;71.30
75931;DHT22;64609;47.052;15.462;2022-12-16T01:13:21;6.00;71.20
75931;DHT22;64609;47.052;15.462;2022-12-16T01:15:47;6.00;72.40
75931;DHT22;64609;47.052;15.462;2022-12-16T01:18:13;6.00;72.20
75931;DHT22;64609;47.052;15.462;2022-12-16T01:20:39;6.10;71.20
75931;DHT22;64609;47.052;15.462;2022-12-16T01:23:05;6.00;71.00
75931;DHT22;64609;47.052;15.462;2022-12-16T01:25:30;6.00;71.40
75931;DHT22;64609;47.052;15.462;2022-12-16T01:27:56;6.00;71.60
75931;DHT22;64609;47.052;15.462;2022-12-16T01:30:22;6.00;71.60
75931;DHT22;64609;47.052;15.462;2022-12-16T01:32:47;6.00;71.90
75931;DHT22;64609;47.052;15.462;2022-12-16T01:35:13;6.10;72.20
75931;DHT22;64609;47.052;15.462;2022-12-16T01:37:39;6.00;71.60
75931;DHT22;64609;47.052;15.462;2022-12-16T01:40:06;6.10;71.80
75931;DHT22;64609;47.052;15.462;2022-12-16T01:42:32;6.00;71.50
75931;DHT22;64609;47.052;15.462;2022-12-16T01:47:53;5.90;71.50
75931;DHT22;64609;47.052;15.462;2022-12-16T01:50:21;5.90;71.50
75931;DHT22;64609;47.052;15.462;2022-12-16T01:52:51;5.90;71.40
75931;DHT22;64609;47.052;15.462;2022-12-16T01:55:24;5.90;71.80
75931;DHT22;64609;47.052;15.462;2022-12-16T01:58:04;5.90;71.70
75931;DHT22;64609;47.052;15.462;2022-12-16T02:00:32;5.90;71.70
75931;DHT22;64609;47.052;15.462;2022-12-16T02:02:59;5.90;71.80
75931;DHT22;64609;47.052;15.462;2022-12-16T02:05:25;5.90;72.40
75931;DHT22;64609;47.052;15.462;2022-12-16T02:08:15;6.00;73.60
75931;DHT22;64609;47.052;15.462;2022-12-16T02:15:56;5.90;72.00
75931;DHT22;64609;47.052;15.462;2022-12-16T02:35:45;6.00;73.60
75931;DHT22;64609;47.052;15.462;2022-12-16T02:43:19;6.00;72.60
75931;DHT22;64609;47.052;15.462;2022-12-16T02:45:46;6.00;72.20
75931;DHT22;64609;47.052;15.462;2022-12-16T02:48:12;5.90;71.80
75931;DHT22;64609;47.052;15.462;2022-12-16T02:50:44;5.90;72.50
75931;DHT22;64609;47.052;15.462;2022-12-16T02:53:12;6.00;72.70
75931;DHT22;64609;47.052;15.462;2022-12-16T02:55:55;6.00;72.50
75931;DHT22;64609;47.052;15.462;2022-12-16T03:04:09;6.00;72.70
75931;DHT22;64609;47.052;15.462;2022-12-16T03:06:39;6.00;72.70
75931;DHT22;64609;47.052;15.462;2022-12-16T03:09:08;5.90;72.50
75931;DHT22;64609;47.052;15.462;2022-12-16T03:11:37;5.80;72.20
75931;DHT22;64609;47.052;15.462;2022-12-16T03:14:05;5.80;73.30
75931;DHT22;64609;47.052;15.462;2022-12-16T03:16:31;5.80;72.80
75931;DHT22;64609;47.052;15.462;2022-12-16T03:19:02;5.80;72.70
75931;DHT22;64609;47.052;15.462;2022-12-16T03:21:33;5.80;72.50
75931;DHT22;64609;47.052;15.462;2022-12-16T03:24:04;5.80;72.60
75931;DHT22;64609;47.052;15.462;2022-12-16T03:29:12;5.70;72.70
75931;DHT22;64609;47.052;15.462;2022-12-16T03:31:53;5.70;73.30
75931;DHT22;64609;47.052;15.462;2022-12-16T03:36:59;5.70;72.50
75931;DHT22;64609;47.052;15.462;2022-12-16T03:39:26;5.70;72.80
75931;DHT22;64609;47.052;15.462;2022-12-16T03:41:53;5.70;73.10
75931;DHT22;64609;47.052;15.462;2022-12-16T03:44:21;5.80;73.10
75931;DHT22;64609;47.052;15.462;2022-12-16T03:46:47;5.70;72.60
75931;DHT22;64609;47.052;15.462;2022-12-16T03:49:13;5.80;72.70
75931;DHT22;64609;47.052;15.462;2022-12-16T03:51:39;5.80;72.60
75931;DHT22;64609;47.052;15.462;2022-12-16T03:54:05;5.80;72.50
75931;DHT22;64609;47.052;15.462;2022-12-16T03:56:31;5.80;72.70
75931;DHT22;64609;47.052;15.462;2022-12-16T03:58:56;5.70;72.30
75931;DHT22;64609;47.052;15.462;2022-12-16T04:01:23;5.70;72.40
75931;DHT22;64609;47.052;15.462;2022-12-16T04:03:49;5.70;72.20
75931;DHT22;64609;47.052;15.462;2022-12-16T04:06:14;5.50;72.30
75931;DHT22;64609;47.052;15.462;2022-12-16T04:08:46;5.50;73.50
75931;DHT22;64609;47.052;15.462;2022-12-16T04:11:13;5.60;73.30
75931;DHT22;64609;47.052;15.462;2022-12-16T04:13:57;5.50;73.00
75931;DHT22;64609;47.052;15.462;2022-12-16T04:16:42;5.40;73.30
75931;DHT22;64609;47.052;15.462;2022-12-16T04:19:30;5.60;74.30
75931;DHT22;64609;47.052;15.462;2022-12-16T04:22:24;5.70;74.50
75931;DHT22;64609;47.052;15.462;2022-12-16T04:25:16;5.80;74.20
75931;DHT22;64609;47.052;15.462;2022-12-16T04:27:43;5.90;74.80
75931;DHT22;64609;47.052;15.462;2022-12-16T04:30:14;6.00;74.90
75931;DHT22;64609;47.052;15.462;2022-12-16T04:32:47;6.10;74.20
75931;DHT22;64609;47.052;15.462;2022-12-16T04:35:32;6.10;73.80
75931;DHT22;64609;47.052;15.462;2022-12-16T04:38:16;6.00;73.60
75931;DHT22;64609;47.052;15.462;2022-12-16T04:41:00;6.10;73.70
75931;DHT22;64609;47.052;15.462;2022-12-16T04:43:44;6.10;74.80
75931;DHT22;64609;47.052;15.462;2022-12-16T04:46:28;6.10;74.30
75931;DHT22;64609;47.052;15.462;2022-12-16T04:49:12;6.10;74.00
75931;DHT22;64609;47.052;15.462;2022-12-16T04:51:56;6.10;74.20
75931;DHT22;64609;47.052;15.462;2022-12-16T04:54:40;6.20;73.90
75931;DHT22;64609;47.052;15.462;2022-12-16T04:57:24;6.20;74.30
75931;DHT22;64609;47.052;15.462;2022-12-16T05:00:09;6.20;73.80
75931;DHT22;64609;47.052;15.462;2022-12-16T05:02:53;6.20;73.70
75931;DHT22;64609;47.052;15.462;2022-12-16T05:05:37;6.20;73.80
75931;DHT22;64609;47.052;15.462;2022-12-16T05:08:21;6.10;73.60
75931;DHT22;64609;47.052;15.462;2022-12-16T05:11:05;6.10;73.90
75931;DHT22;64609;47.052;15.462;2022-12-16T05:13:49;6.00;74.00
75931;DHT22;64609;47.052;15.462;2022-12-16T05:16:33;6.00;73.70
75931;DHT22;64609;47.052;15.462;2022-12-16T05:19:17;6.00;73.40
75931;DHT22;64609;47.052;15.462;2022-12-16T05:22:02;5.80;74.30
75931;DHT22;64609;47.052;15.462;2022-12-16T05:24:45;5.70;72.90
75931;DHT22;64609;47.052;15.462;2022-12-16T05:27:30;5.60;73.10
75931;DHT22;64609;47.052;15.462;2022-12-16T05:30:14;5.50;73.30
75931;DHT22;64609;47.052;15.462;2022-12-16T05:32:59;5.50;75.20
75931;DHT22;64609;47.052;15.462;2022-12-16T05:35:43;5.50;73.90
75931;DHT22;64609;47.052;15.462;2022-12-16T05:38:27;5.50;73.80
75931;DHT22;64609;47.052;15.462;2022-12-16T05:41:11;5.50;74.20
75931;DHT22;64609;47.052;15.462;2022-12-16T05:43:55;5.50;74.20
75931;DHT22;64609;47.052;15.462;2022-12-16T05:46:39;5.50;73.90
75931;DHT22;64609;47.052;15.462;2022-12-16T05:49:23;5.40;73.70
75931;DHT22;64609;47.052;15.462;2022-12-16T05:52:07;5.40;73.70
75931;DHT22;64609;47.052;15.462;2022-12-16T05:54:52;5.40;73.60
75931;DHT22;64609;47.052;15.462;2022-12-16T05:57:38;5.40;73.50
75931;DHT22;64609;47.052;15.462;2022-12-16T06:00:22;5.40;73.70
75931;DHT22;64609;47.052;15.462;2022-12-16T06:03:06;5.40;74.10
75931;DHT22;64609;47.052;15.462;2022-12-16T06:05:50;5.40;73.90
75931;DHT22;64609;47.052;15.462;2022-12-16T06:08:34;5.40;74.30
75931;DHT22;64609;47.052;15.462;2022-12-16T06:11:18;5.50;74.10
75931;DHT22;64609;47.052;15.462;2022-12-16T06:14:02;5.50;74.20
75931;DHT22;64609;47.052;15.462;2022-12-16T06:16:46;5.40;75.50
75931;DHT22;64609;47.052;15.462;2022-12-16T06:19:30;5.50;74.80
75931;DHT22;64609;47.052;15.462;2022-12-16T06:22:14;5.60;75.10
75931;DHT22;64609;47.052;15.462;2022-12-16T06:24:59;5.70;75.30
75931;DHT22;64609;47.052;15.462;2022-12-16T06:27:51;5.70;75.10
75931;DHT22;64609;47.052;15.462;2022-12-16T06:30:35;5.70;75.70
75931;DHT22;64609;47.052;15.462;2022-12-16T06:33:19;5.70;75.10
75931;DHT22;64609;47.052;15.462;2022-12-16T06:36:04;5.80;75.30
75931;DHT22;64609;47.052;15.462;2022-12-16T06:38:48;5.80;76.00
75931;DHT22;64609;47.052;15.462;2022-12-16T06:41:32;5.80;75.00
75931;DHT22;64609;47.052;15.462;2022-12-16T06:44:16;5.80;74.20
75931;DHT22;64609;47.052;15.462;2022-12-16T06:47:00;5.80;74.20
75931;DHT22;64609;47.052;15.462;2022-12-16T06:49:44;5.80;74.70
75931;DHT22;64609;47.052;15.462;2022-12-16T06:52:28;5.80;74.90
75931;DHT22;64609;47.052;15.462;2022-12-16T06:55:12;5.80;74.10
75931;DHT22;64609;47.052;15.462;2022-12-16T06:57:57;5.80;74.70
75931;DHT22;64609;47.052;15.462;2022-12-16T07:00:42;5.90;74.40
75931;DHT22;64609;47.052;15.462;2022-12-16T07:03:26;5.90;74.60
75931;DHT22;64609;47.052;15.462;2022-12-16T07:06:10;5.90;74.50
75931;DHT22;64609;47.052;15.462;2022-12-16T07:08:54;5.90;74.80
75931;DHT22;64609;47.052;15.462;2022-12-16T07:11:38;5.90;74.50
75931;DHT22;64609;47.052;15.462;2022-12-16T07:14:22;6.00;74.60
75931;DHT22;64609;47.052;15.462;2022-12-16T07:17:06;6.00;74.40
75931;DHT22;64609;47.052;15.462;2022-12-16T07:19:50;6.00;74.40
75931;DHT22;64609;47.052;15.462;2022-12-16T07:22:34;5.90;73.90
75931;DHT22;64609;47.052;15.462;2022-12-16T07:25:18;5.90;74.60
75931;DHT22;64609;47.052;15.462;2022-12-16T07:28:03;5.90;73.50
75931;DHT22;64609;47.052;15.462;2022-12-16T07:30:47;5.80;73.90
75931;DHT22;64609;47.052;15.462;2022-12-16T07:33:31;5.80;74.40
75931;DHT22;64609;47.052;15.462;2022-12-16T07:36:14;5.80;73.90
75931;DHT22;64609;47.052;15.462;2022-12-16T07:38:59;5.80;74.60
75931;DHT22;64609;47.052;15.462;2022-12-16T07:41:43;5.80;75.40
75931;DHT22;64609;47.052;15.462;2022-12-16T07:44:27;5.90;75.20
75931;DHT22;64609;47.052;15.462;2022-12-16T07:47:11;6.00;74.70
75931;DHT22;64609;47.052;15.462;2022-12-16T07:49:55;5.90;73.90
75931;DHT22;64609;47.052;15.462;2022-12-16T07:52:39;5.80;73.50
75931;DHT22;64609;47.052;15.462;2022-12-16T07:55:23;5.90;74.50
75931;DHT22;64609;47.052;15.462;2022-12-16T07:58:08;6.00;74.00
75931;DHT22;64609;47.052;15.462;2022-12-16T08:00:53;6.10;73.60
75931;DHT22;64609;47.052;15.462;2022-12-16T08:03:37;6.20;73.80
75931;DHT22;64609;47.052;15.462;2022-12-16T08:06:21;6.40;73.30
75931;DHT22;64609;47.052;15.462;2022-12-16T08:09:05;6.80;72.50
75931;DHT22;64609;47.052;15.462;2022-12-16T08:11:49;7.30;70.90
75931;DHT22;64609;47.052;15.462;2022-12-16T08:14:33;7.50;69.00
75931;DHT22;64609;47.052;15.462;2022-12-16T08:17:17;7.30;68.80
75931;DHT22;64609;47.052;15.462;2022-12-16T08:20:01;7.30;69.50
75931;DHT22;64609;47.052;15.462;2022-12-16T08:22:45;7.20;69.30
75931;DHT22;64609;47.052;15.462;2022-12-16T08:25:29;7.00;70.40
75931;DHT22;64609;47.052;15.462;2022-12-16T08:28:13;6.90;69.30
75931;DHT22;64609;47.052;15.462;2022-12-16T08:30:57;6.90;70.40
75931;DHT22;64609;47.052;15.462;2022-12-16T08:33:41;6.80;71.10
75931;DHT22;64609;47.052;15.462;2022-12-16T08:36:25;6.80;71.00
75931;DHT22;64609;47.052;15.462;2022-12-16T08:39:09;6.80;71.30
75931;DHT22;64609;47.052;15.462;2022-12-16T08:41:53;6.90;71.60
75931;DHT22;64609;47.052;15.462;2022-12-16T08:44:37;6.90;71.80
75931;DHT22;64609;47.052;15.462;2022-12-16T08:47:21;6.90;72.20
75931;DHT22;64609;47.052;15.462;2022-12-16T08:50:06;6.90;71.20
75931;DHT22;64609;47.052;15.462;2022-12-16T08:52:50;6.90;70.80
75931;DHT22;64609;47.052;15.462;2022-12-16T08:55:34;6.80;70.50
75931;DHT22;64609;47.052;15.462;2022-12-16T08:58:18;6.60;70.50
75931;DHT22;64609;47.052;15.462;2022-12-16T09:01:02;6.50;71.40
75931;DHT22;64609;47.052;15.462;2022-12-16T09:03:46;6.60;71.50
75931;DHT22;64609;47.052;15.462;2022-12-16T09:06:31;6.60;71.30
75931;DHT22;64609;47.052;15.462;2022-12-16T09:09:15;6.50;70.40
75931;DHT22;64609;47.052;15.462;2022-12-16T09:11:59;6.40;70.80
75931;DHT22;64609;47.052;15.462;2022-12-16T09:14:43;6.40;71.10
75931;DHT22;64609;47.052;15.462;2022-12-16T09:17:27;6.50;72.00
75931;DHT22;64609;47.052;15.462;2022-12-16T09:20:11;6.60;71.60
75931;DHT22;64609;47.052;15.462;2022-12-16T09:22:55;6.60;71.50
75931;DHT22;64609;47.052;15.462;2022-12-16T09:25:39;6.70;71.90
75931;DHT22;64609;47.052;15.462;2022-12-16T09:28:23;6.70;71.30
75931;DHT22;64609;47.052;15.462;2022-12-16T09:31:07;6.80;71.60
75931;DHT22;64609;47.052;15.462;2022-12-16T09:33:51;6.90;70.90
75931;DHT22;64609;47.052;15.462;2022-12-16T09:36:35;6.80;71.70
75931;DHT22;64609;47.052;15.462;2022-12-16T09:39:19;6.80;72.20
75931;DHT22;64609;47.052;15.462;2022-12-16T09:42:22;6.90;72.20
75931;DHT22;64609;47.052;15.462;2022-12-16T09:46:03;6.80;71.80
75931;DHT22;64609;47.052;15.462;2022-12-16T09:51:38;7.00;72.70
75931;DHT22;64609;47.052;15.462;2022-12-16T09:54:25;7.10;72.00
75931;DHT22;64609;47.052;15.462;2022-12-16T09:57:10;7.10;71.80
75931;DHT22;64609;47.052;15.462;2022-12-16T09:59:59;7.20;71.30
75931;DHT22;64609;47.052;15.462;2022-12-16T10:02:46;7.20;70.60
75931;DHT22;64609;47.052;15.462;2022-12-16T10:08:55;7.10;70.30
75931;DHT22;64609;47.052;15.462;2022-12-16T10:15:02;6.90;70.60
75931;DHT22;64609;47.052;15.462;2022-12-16T10:17:54;6.90;71.50
75931;DHT22;64609;47.052;15.462;2022-12-16T10:20:49;7.00;71.70
75931;DHT22;64609;47.052;15.462;2022-12-16T10:27:10;7.10;71.60
75931;DHT22;64609;47.052;15.462;2022-12-16T10:29:46;7.10;71.00
75931;DHT22;64609;47.052;15.462;2022-12-16T10:32:43;7.10;71.70
75931;DHT22;64609;47.052;15.462;2022-12-16T10:35:31;7.20;71.50
75931;DHT22;64609;47.052;15.462;2022-12-16T10:41:12;7.10;71.90
75931;DHT22;64609;47.052;15.462;2022-12-16T10:43:57;7.20;72.10
75931;DHT22;64609;47.052;15.462;2022-12-16T10:46:45;7.20;72.40
75931;DHT22;64609;47.052;15.462;2022-12-16T10:49:29;7.30;73.00
75931;DHT22;64609;47.052;15.462;2022-12-16T10:52:14;7.30;72.90
75931;DHT22;64609;47.052;15.462;2022-12-16T10:58:01;7.30;72.50
75931;DHT22;64609;47.052;15.462;2022-12-16T11:00:50;7.30;73.10
75931;DHT22;64609;47.052;15.462;2022-12-16T11:03:39;7.40;72.50
75931;DHT22;64609;47.052;15.462;2022-12-16T11:12:29;7.40;72.50
75931;DHT22;64609;47.052;15.462;2022-12-16T11:15:22;7.50;72.40
75931;DHT22;64609;47.052;15.462;2022-12-16T11:18:15;7.50;72.20
75931;DHT22;64609;47.052;15.462;2022-12-16T11:21:15;7.50;72.10
75931;DHT22;64609;47.052;15.462;2022-12-16T11:26:55;7.50;72.00
75931;DHT22;64609;47.052;15.462;2022-12-16T11:32:58;7.50;72.50
75931;DHT22;64609;47.052;15.462;2022-12-16T11:35:49;7.70;72.90
75931;DHT22;64609;47.052;15.462;2022-12-16T11:38:41;7.80;72.80
75931;DHT22;64609;47.052;15.462;2022-12-16T11:41:30;8.00;72.60
75931;DHT22;64609;47.052;15.462;2022-12-16T11:44:18;8.00;72.70
75931;DHT22;64609;47.052;15.462;2022-12-16T11:47:09;8.00;72.50
75931;DHT22;64609;47.052;15.462;2022-12-16T11:49:57;8.00;72.20
75931;DHT22;64609;47.052;15.462;2022-12-16T11:52:53;7.90;70.80
75931;DHT22;64609;47.052;15.462;2022-12-16T11:55:43;7.80;71.30
75931;DHT22;64609;47.052;15.462;2022-12-16T11:58:39;7.80;71.50
75931;DHT22;64609;47.052;15.462;2022-12-16T12:01:50;7.80;71.40
75931;DHT22;64609;47.052;15.462;2022-12-16T12:04:31;7.80;72.50
75931;DHT22;64609;47.052;15.462;2022-12-16T12:17:40;7.90;72.10
75931;DHT22;64609;47.052;15.462;2022-12-16T12:26:31;8.00;72.40
75931;DHT22;64609;47.052;15.462;2022-12-16T12:38:30;8.00;72.50
75931;DHT22;64609;47.052;15.462;2022-12-16T12:41:29;7.90;71.80
75931;DHT22;64609;47.052;15.462;2022-12-16T12:47:05;8.00;73.40
75931;DHT22;64609;47.052;15.462;2022-12-16T12:50:08;8.00;74.20
75931;DHT22;64609;47.052;15.462;2022-12-16T12:56:24;8.00;73.10
75931;DHT22;64609;47.052;15.462;2022-12-16T12:59:26;8.00;73.10
75931;DHT22;64609;47.052;15.462;2022-12-16T13:02:16;8.00;72.60
75931;DHT22;64609;47.052;15.462;2022-12-16T13:05:02;8.00;72.80
75931;DHT22;64609;47.052;15.462;2022-12-16T13:07:46;8.00;72.70
75931;DHT22;64609;47.052;15.462;2022-12-16T13:10:36;7.90;72.60
75931;DHT22;64609;47.052;15.462;2022-12-16T13:13:32;7.90;72.40
75931;DHT22;64609;47.052;15.462;2022-12-16T13:22:30;7.80;72.90
75931;DHT22;64609;47.052;15.462;2022-12-16T13:28:39;7.90;73.70
75931;DHT22;64609;47.052;15.462;2022-12-16T13:31:25;7.90;72.60
75931;DHT22;64609;47.052;15.462;2022-12-16T13:36:59;7.40;72.50
75931;DHT22;64609;47.052;15.462;2022-12-16T13:40:15;7.40;73.10
75931;DHT22;64609;47.052;15.462;2022-12-16T13:43:00;7.50;74.00
75931;DHT22;64609;47.052;15.462;2022-12-16T13:48:50;7.60;73.40
75931;DHT22;64609;47.052;15.462;2022-12-16T13:54:28;7.60;72.60
75931;DHT22;64609;47.052;15.462;2022-12-16T13:57:18;7.50;73.20
75931;DHT22;64609;47.052;15.462;2022-12-16T14:00:04;7.50;73.00
75931;DHT22;64609;47.052;15.462;2022-12-16T14:02:56;7.40;73.00
75931;DHT22;64609;47.052;15.462;2022-12-16T14:05:42;7.30;73.90
75931;DHT22;64609;47.052;15.462;2022-12-16T14:08:28;7.30;73.20
75931;DHT22;64609;47.052;15.462;2022-12-16T14:11:31;7.30;73.60
75931;DHT22;64609;47.052;15.462;2022-12-16T14:14:31;7.40;73.90
75931;DHT22;64609;47.052;15.462;2022-12-16T14:17:29;7.40;73.50
75931;DHT22;64609;47.052;15.462;2022-12-16T14:20:22;7.40;74.00
75931;DHT22;64609;47.052;15.462;2022-12-16T14:26:15;7.50;74.30
75931;DHT22;64609;47.052;15.462;2022-12-16T14:29:00;7.50;74.20
75931;DHT22;64609;47.052;15.462;2022-12-16T14:31:45;7.50;74.10
75931;DHT22;64609;47.052;15.462;2022-12-16T14:34:34;7.40;73.80
75931;DHT22;64609;47.052;15.462;2022-12-16T14:37:36;7.40;73.80
75931;DHT22;64609;47.052;15.462;2022-12-16T14:40:28;7.30;73.70
75931;DHT22;64609;47.052;15.462;2022-12-16T14:43:19;7.40;74.40
75931;DHT22;64609;47.052;15.462;2022-12-16T14:46:04;7.40;74.50
75931;DHT22;64609;47.052;15.462;2022-12-16T14:48:50;7.40;74.30
75931;DHT22;64609;47.052;15.462;2022-12-16T14:51:44;7.50;74.20
75931;DHT22;64609;47.052;15.462;2022-12-16T14:57:29;7.30;74.10
75931;DHT22;64609;47.052;15.462;2022-12-16T15:00:19;7.30;74.20
75931;DHT22;64609;47.052;15.462;2022-12-16T15:06:08;7.30;75.00
75931;DHT22;64609;47.052;15.462;2022-12-16T15:08:57;7.40;75.00
75931;DHT22;64609;47.052;15.462;2022-12-16T15:11:44;7.40;74.80
75931;DHT22;64609;47.052;15.462;2022-12-16T15:14:34;7.50;74.80
75931;DHT22;64609;47.052;15.462;2022-12-16T15:17:25;7.50;74.40
75931;DHT22;64609;47.052;15.462;2022-12-16T15:20:31;7.50;74.30
75931;DHT22;64609;47.052;15.462;2022-12-16T15:23:29;7.60;74.10
75931;DHT22;64609;47.052;15.462;2022-12-16T15:26:22;7.70;73.90
75931;DHT22;64609;47.052;15.462;2022-12-16T15:29:46;7.70;73.60
75931;DHT22;64609;47.052;15.462;2022-12-16T15:32:32;7.60;73.50
75931;DHT22;64609;47.052;15.462;2022-12-16T15:35:33;7.60;73.70
75931;DHT22;64609;47.052;15.462;2022-12-16T15:38:30;7.60;73.60
75931;DHT22;64609;47.052;15.462;2022-12-16T15:41:30;7.50;73.60
75931;DHT22;64609;47.052;15.462;2022-12-16T15:47:00;7.50;74.10
75931;DHT22;64609;47.052;15.462;2022-12-16T15:49:46;7.50;74.30
75931;DHT22;64609;47.052;15.462;2022-12-16T15:55:28;7.60;74.50
75931;DHT22;64609;47.052;15.462;2022-12-16T16:01:16;7.80;74.20
75931;DHT22;64609;47.052;15.462;2022-12-16T16:04:02;7.80;73.90
75931;DHT22;64609;47.052;15.462;2022-12-16T16:06:51;7.80;73.90
75931;DHT22;64609;47.052;15.462;2022-12-16T16:09:38;7.70;73.90
75931;DHT22;64609;47.052;15.462;2022-12-16T16:12:23;7.70;74.10
75931;DHT22;64609;47.052;15.462;2022-12-16T16:15:10;7.80;74.00
75931;DHT22;64609;47.052;15.462;2022-12-16T16:18:00;7.80;74.00
75931;DHT22;64609;47.052;15.462;2022-12-16T16:20:45;7.70;73.20
75931;DHT22;64609;47.052;15.462;2022-12-16T16:23:31;7.60;74.00
75931;DHT22;64609;47.052;15.462;2022-12-16T16:26:18;7.70;73.80
75931;DHT22;64609;47.052;15.462;2022-12-16T16:29:03;7.60;73.40
75931;DHT22;64609;47.052;15.462;2022-12-16T16:31:47;7.50;73.40
75931;DHT22;64609;47.052;15.462;2022-12-16T16:34:31;7.50;74.10
75931;DHT22;64609;47.052;15.462;2022-12-16T16:37:18;7.50;73.80
75931;DHT22;64609;47.052;15.462;2022-12-16T16:40:22;7.40;74.20
75931;DHT22;64609;47.052;15.462;2022-12-16T16:43:08;7.50;74.90
75931;DHT22;64609;47.052;15.462;2022-12-16T16:45:53;7.60;74.70
75931;DHT22;64609;47.052;15.462;2022-12-16T16:48:38;7.70;74.50
75931;DHT22;64609;47.052;15.462;2022-12-16T16:51:23;7.80;74.30
75931;DHT22;64609;47.052;15.462;2022-12-16T16:54:07;7.80;74.50
75931;DHT22;64609;47.052;15.462;2022-12-16T16:56:51;7.80;74.50
75931;DHT22;64609;47.052;15.462;2022-12-16T16:59:36;7.80;74.30
75931;DHT22;64609;47.052;15.462;2022-12-16T17:02:22;7.90;74.00
75931;DHT22;64609;47.052;15.462;2022-12-16T17:05:09;7.80;73.70
75931;DHT22;64609;47.052;15.462;2022-12-16T17:07:53;7.90;73.40
75931;DHT22;64609;47.052;15.462;2022-12-16T17:10:37;7.90;73.10
75931;DHT22;64609;47.052;15.462;2022-12-16T17:13:22;7.80;73.20
75931;DHT22;64609;47.052;15.462;2022-12-16T17:16:12;7.80;73.20
75931;DHT22;64609;47.052;15.462;2022-12-16T17:18:56;7.80;73.30
75931;DHT22;64609;47.052;15.462;2022-12-16T17:21:40;7.80;73.40
75931;DHT22;64609;47.052;15.462;2022-12-16T17:24:25;7.80;73.60
75931;DHT22;64609;47.052;15.462;2022-12-16T17:27:17;7.80;73.90
75931;DHT22;64609;47.052;15.462;2022-12-16T17:30:03;7.80;74.00
75931;DHT22;64609;47.052;15.462;2022-12-16T17:32:47;7.90;74.40
75931;DHT22;64609;47.052;15.462;2022-12-16T17:35:31;7.90;74.30
75931;DHT22;64609;47.052;15.462;2022-12-16T17:38:15;7.90;74.40
75931;DHT22;64609;47.052;15.462;2022-12-16T17:40:59;7.90;74.10
75931;DHT22;64609;47.052;15.462;2022-12-16T17:43:43;7.90;74.20
75931;DHT22;64609;47.052;15.462;2022-12-16T17:46:28;7.90;74.60
75931;DHT22;64609;47.052;15.462;2022-12-16T17:49:12;7.90;74.50
75931;DHT22;64609;47.052;15.462;2022-12-16T17:51:56;7.90;74.70
75931;DHT22;64609;47.052;15.462;2022-12-16T17:54:40;7.90;74.70
75931;DHT22;64609;47.052;15.462;2022-12-16T17:57:24;7.90;74.40
75931;DHT22;64609;47.052;15.462;2022-12-16T18:00:09;7.80;74.10
75931;DHT22;64609;47.052;15.462;2022-12-16T18:02:54;7.80;74.40
75931;DHT22;64609;47.052;15.462;2022-12-16T18:05:38;7.80;74.40
75931;DHT22;64609;47.052;15.462;2022-12-16T18:08:22;7.80;74.60
75931;DHT22;64609;47.052;15.462;2022-12-16T18:11:06;7.80;74.50
75931;DHT22;64609;47.052;15.462;2022-12-16T18:13:50;7.80;74.60
75931;DHT22;64609;47.052;15.462;2022-12-16T18:16:34;7.80;74.70
75931;DHT22;64609;47.052;15.462;2022-12-16T18:19:18;7.80;74.70
75931;DHT22;64609;47.052;15.462;2022-12-16T18:22:03;7.80;74.60
75931;DHT22;64609;47.052;15.462;2022-12-16T18:24:47;7.80;74.60
75931;DHT22;64609;47.052;15.462;2022-12-16T18:27:32;7.70;74.90
75931;DHT22;64609;47.052;15.462;2022-12-16T18:30:16;7.80;74.90
75931;DHT22;64609;47.052;15.462;2022-12-16T18:33:00;7.70;74.40
75931;DHT22;64609;47.052;15.462;2022-12-16T18:35:44;7.60;74.50
75931;DHT22;64609;47.052;15.462;2022-12-16T18:38:29;7.60;74.80
75931;DHT22;64609;47.052;15.462;2022-12-16T18:41:15;7.60;74.50
75931;DHT22;64609;47.052;15.462;2022-12-16T18:43:59;7.60;74.50
75931;DHT22;64609;47.052;15.462;2022-12-16T18:46:45;7.60;74.90
75931;DHT22;64609;47.052;15.462;2022-12-16T18:49:30;7.70;75.20
75931;DHT22;64609;47.052;15.462;2022-12-16T18:52:15;7.70;75.10
75931;DHT22;64609;47.052;15.462;2022-12-16T18:54:59;7.70;75.10
75931;DHT22;64609;47.052;15.462;2022-12-16T18:57:43;7.70;74.70
75931;DHT22;64609;47.052;15.462;2022-12-16T19:00:27;7.70;74.80
75931;DHT22;64609;47.052;15.462;2022-12-16T19:03:11;7.60;73.80
75931;DHT22;64609;47.052;15.462;2022-12-16T19:05:55;7.50;74.10
75931;DHT22;64609;47.052;15.462;2022-12-16T19:08:40;7.50;74.70
75931;DHT22;64609;47.052;15.462;2022-12-16T19:11:24;7.50;74.90
75931;DHT22;64609;47.052;15.462;2022-12-16T19:14:08;7.50;75.00
75931;DHT22;64609;47.052;15.462;2022-12-16T19:16:52;7.60;74.90
75931;DHT22;64609;47.052;15.462;2022-12-16T19:19:36;7.60;74.40
75931;DHT22;64609;47.052;15.462;2022-12-16T19:22:20;7.60;74.70
75931;DHT22;64609;47.052;15.462;2022-12-16T19:25:05;7.50;74.30